Latest Weather Observations for Edithburgh

IDS60801

Issued at 9:35 pm CST Tuesday 23 September 2014 (issued every 30 minutes, with the page automatically refreshed every 10 minutes)

About weather observations | Map of weather stations | Latest weather observations for SA | Other Formats
Station Details ID: 022046 Name: EDITHBURGH Lat: -35.11 Lon: 137.74 Height: 6.0 m
Data from the previous 72 hours. | See also: Recent months at Edithburgh
Date/Time
CST
Temp
°C
App
Temp
°C
Dew
Point
Rel
Hum
%
Delta-T
°C
Wind Press
QNH
hPa
Press
MSL
hPa
Rain
since 9 am
mm
Dir
 
Spd
km/h
Gust
km/h
Spd
kts
Gust
kts
23/09:30pm 16.5 15.9 10.5 67 3.2 N 4 9 2 5 1015.2 1015.2 0.0
23/09:00pm 17.4 16.4 10.2 62 3.8 NW 6 13 3 7 1015.2 1015.2 0.0
23/08:30pm 16.9 16.4 12.0 73 2.7 N 6 9 3 5 1015.4 1015.4 0.0
23/08:00pm 18.1 15.2 10.9 63 3.9 NE 17 28 9 15 1015.5 1015.5 0.0
23/07:30pm 16.8 16.3 12.1 74 2.6 ENE 6 9 3 5 1014.8 1014.8 0.0
23/07:00pm 16.6 16.0 12.4 76 2.3 NE 7 11 4 6 1014.9 1014.9 0.0
23/06:30pm 16.0 16.0 12.5 80 1.9 ESE 4 7 2 4 1014.6 1014.6 0.0
23/06:00pm 16.9 16.5 13.0 78 2.2 SSE 7 9 4 5 1014.2 1014.2 0.0
23/05:30pm 18.3 17.8 12.6 69 3.2 S 7 11 4 6 1014.3 1014.3 0.0
23/05:00pm 18.9 17.6 12.4 66 3.6 SE 11 17 6 9 1014.4 1014.4 0.0
23/04:30pm 19.4 17.2 12.2 63 4.0 ESE 15 20 8 11 1014.6 1014.6 0.0
23/04:00pm 20.9 17.9 10.6 51 5.6 ESE 17 19 9 10 1014.7 1014.7 0.0
23/03:30pm 21.4 18.8 10.6 50 5.9 ESE 15 19 8 10 1015.0 1015.0 0.0
23/03:00pm 21.0 18.4 10.8 52 5.6 E 15 19 8 10 1015.5 1015.5 0.0
23/02:30pm 22.2 19.0 10.0 46 6.6 E 17 22 9 12 1015.7 1015.7 0.0
23/02:00pm 22.0 18.2 9.8 45 6.6 E 20 24 11 13 1016.0 1016.0 0.0
23/01:30pm 22.0 18.7 10.9 49 6.1 E 19 22 10 12 1016.6 1016.6 0.0
23/01:00pm 20.9 17.9 10.6 51 5.6 E 17 20 9 11 1017.0 1017.0 0.0
23/12:30pm 20.4 17.9 10.9 54 5.2 ENE 15 20 8 11 1017.5 1017.5 0.0
23/12:00pm 19.4 17.4 11.4 60 4.4 NE 13 19 7 10 1018.1 1018.1 0.0
23/11:30am 19.4 17.9 11.8 61 4.2 NE 11 17 6 9 1018.5 1018.5 0.0
23/11:00am 19.7 18.4 11.1 57 4.7 NE 9 17 5 9 1018.8 1018.8 0.0
23/10:30am 18.7 17.1 11.4 62 4.0 NNE 11 15 6 8 1019.3 1019.3 0.0
23/10:00am 18.7 16.9 10.9 60 4.2 NNE 11 17 6 9 1019.6 1019.6 0.0
23/09:30am 17.5 15.0 11.0 65 3.5 NE 15 20 8 11 1019.9 1019.8 0.0
23/09:00am 17.6 14.6 10.7 64 3.7 NE 17 24 9 13 1020.1 1020.0 0.0
23/08:30am 16.8 13.4 10.4 66 3.4 NE 19 24 10 13 1020.3 1020.2 0.0
23/08:00am 17.1 15.1 11.4 69 3.1 NNE 13 19 7 10 1020.3 1020.2 0.0
23/07:30am 16.2 14.7 12.0 76 2.3 NE 11 17 6 9 1020.1 1020.0 0.0
23/07:00am 15.8 14.5 11.1 73 2.5 NNE 9 15 5 8 1020.1 1020.0 0.0
23/06:30am 15.0 13.5 10.4 74 2.4 NNE 9 15 5 8 1019.9 1019.8 0.0
23/06:00am 14.6 12.1 9.7 72 2.5 NNE 13 19 7 10 1019.9 1019.8 0.0
23/05:30am 14.7 12.3 10.1 74 2.4 NNE 13 19 7 10 1019.7 1019.7 0.0
23/05:00am 14.2 12.8 10.8 80 1.8 NNE 9 15 5 8 1019.7 1019.7 0.0
23/04:30am 13.7 12.8 11.4 86 1.2 NNE 7 13 4 7 1019.7 1019.7 0.0
23/04:00am 14.0 12.9 11.8 86 1.2 NNE 9 13 5 7 1019.7 1019.7 0.0
23/03:30am 14.4 13.1 11.4 82 1.6 NNE 9 13 5 7 1019.5 1019.5 0.0
23/03:00am 14.7 13.2 10.5 76 2.2 NNE 9 15 5 8 1019.6 1019.6 0.0
23/02:30am 14.7 13.2 10.5 76 2.2 NNE 9 13 5 7 1019.7 1019.7 0.0
23/02:00am 15.3 13.5 9.3 67 3.1 NNE 9 15 5 8 1019.9 1019.8 0.0
23/01:30am 15.6 13.2 8.7 63 3.5 NNE 11 17 6 9 1020.1 1020.0 0.0
23/01:00am 16.1 12.8 8.2 59 4.0 NE 15 20 8 11 1020.3 1020.2 0.0
23/12:30am 16.5 12.7 7.7 56 4.4 NE 17 22 9 12 1020.5 1020.4 0.0
23/12:00am 15.6 12.6 7.5 58 4.0 ENE 13 17 7 9 1020.6 1020.5 0.0
 
Date/Time
CST
Temp
°C
App
Temp
°C
Dew
Point
Rel
Hum
%
Delta-T
°C
Wind Press
QNH
hPa
Press
MSL
hPa
Rain
since 9 am
mm
Dir
 
Spd
km/h
Gust
km/h
Spd
kts
Gust
kts
22/11:30pm 15.4 13.1 7.3 58 4.0 E 9 15 5 8 1020.7 1020.6 0.0
22/11:00pm 15.9 11.6 7.9 59 4.0 ESE 20 24 11 13 1020.7 1020.6 0.0
22/10:30pm 16.3 12.0 7.2 55 4.5 SE 19 24 10 13 1020.9 1020.8 0.0
22/10:00pm 16.5 12.1 6.7 52 4.8 SE 19 22 10 12 1021.2 1021.1 0.0
22/09:30pm 16.7 12.6 6.2 50 5.1 SE 17 24 9 13 1021.3 1021.2 0.0
22/09:00pm 15.0 12.4 9.3 68 2.9 SE 13 17 7 9 1021.5 1021.4 0.0
22/08:30pm 14.5 12.5 10.1 75 2.3 SE 11 15 6 8 1021.5 1021.4 0.0
22/08:00pm 13.7 12.0 11.2 85 1.3 SSE 11 13 6 7 1021.4 1021.3 0.0
22/07:30pm 13.6 12.3 11.1 85 1.3 SSE 9 11 5 6 1021.4 1021.3 0.0
22/07:00pm 13.8 12.8 11.1 84 1.4 SSE 7 9 4 5 1021.1 1021.0 0.0
22/06:30pm 14.4 12.9 10.6 78 2.0 SSE 9 9 5 5 1021.0 1020.9 0.0
22/06:00pm 15.4 14.1 9.8 69 2.9 S 7 9 4 5 1020.7 1020.6 0.0
22/05:30pm 17.0 15.7 9.1 59 4.1 S 6 11 3 6 1020.7 1020.6 0.0
22/05:00pm 18.9 17.0 7.7 48 5.7 S 7 11 4 6 1020.5 1020.4 0.0
22/04:30pm 20.1 17.6 4.8 36 7.4 ESE 7 9 4 5 1020.4 1020.3 0.0
22/04:00pm 21.0 17.7 2.6 29 8.6 E 9 13 5 7 1020.2 1020.1 0.0
22/03:30pm 22.5 19.1 1.6 25 9.7 ENE 9 13 5 7 1020.4 1020.3 0.0
22/03:00pm 20.9 17.3 4.9 35 7.8 ENE 13 17 7 9 1020.9 1020.8 0.0
22/02:30pm 21.0 17.3 4.5 34 8.0 NE 13 17 7 9 1021.2 1021.1 0.0
22/02:00pm 20.3 16.8 7.3 43 6.6 NE 15 22 8 12 1021.6 1021.5 0.0
22/01:30pm 19.7 15.9 7.5 45 6.2 NE 17 20 9 11 1022.0 1021.9 0.0
22/01:00pm 18.9 15.4 7.2 46 5.9 NE 15 20 8 11 1022.2 1022.1 0.0
22/12:30pm 18.4 14.2 7.5 49 5.5 NE 19 24 10 13 1022.7 1022.6 0.0
22/12:00pm 18.5 14.0 6.3 45 6.0 NE 19 26 10 14 1023.3 1023.2 0.0
22/11:30am 18.0 13.7 7.9 51 5.1 NE 20 28 11 15 1023.7 1023.7 0.0
22/11:00am 17.9 14.0 8.8 55 4.7 NE 19 26 10 14 1024.1 1024.1 0.0
22/10:30am 17.8 14.6 8.4 54 4.8 NNE 15 22 8 12 1024.5 1024.5 0.0
22/10:00am 17.3 13.6 8.0 54 4.7 NNE 17 24 9 13 1024.6 1024.6 0.0
22/09:30am 17.2 13.7 8.8 57 4.3 NNE 17 24 9 13 1025.0 1025.0 0.0
22/09:00am 16.8 13.8 9.2 61 3.9 NNE 15 22 8 12 1025.2 1025.2 0.0
22/08:30am 16.7 13.8 8.2 57 4.3 NNE 13 20 7 11 1025.2 1025.2 0.0
22/08:00am 16.3 13.7 9.5 64 3.5 NNE 13 22 7 12 1025.3 1025.3 0.0
22/07:30am 15.5 12.4 8.8 64 3.4 NNE 15 24 8 13 1025.2 1025.2 0.0
22/07:00am 14.9 11.5 7.6 61 3.6 NNE 15 24 8 13 1025.2 1025.2 0.0
22/06:30am 14.0 10.7 8.1 67 2.9 NNE 15 24 8 13 1025.1 1025.1 0.0
22/06:00am 13.6 10.8 8.6 72 2.5 NNE 13 20 7 11 1025.0 1025.0 0.0
22/05:30am 13.5 10.2 8.2 70 2.6 NNE 15 22 8 12 1024.8 1024.8 0.0
22/05:00am 13.4 10.6 8.4 72 2.5 NNE 13 19 7 10 1024.8 1024.8 0.0
22/04:30am 13.4 10.2 8.4 72 2.5 NE 15 20 8 11 1024.5 1024.5 0.0
22/04:00am 13.9 10.0 7.1 63 3.3 NE 17 22 9 12 1024.4 1024.4 0.0
22/03:30am 13.9 10.4 7.3 64 3.2 NNE 15 22 8 12 1024.6 1024.6 0.0
22/03:00am 14.1 10.9 8.3 68 2.9 NNE 15 20 8 11 1024.7 1024.7 0.0
22/02:30am 13.8 11.5 9.0 73 2.4 NNE 11 17 6 9 1025.1 1025.1 0.0
22/02:00am 13.7 11.1 7.8 67 2.9 NNE 11 17 6 9 1025.4 1025.4 0.0
22/01:30am 12.7 10.8 10.4 86 1.2 NE 11 15 6 8 1025.6 1025.6 0.0
22/01:00am 13.2 11.2 10.1 81 1.6 NE 11 15 6 8 1026.1 1026.1 0.0
22/12:30am 13.7 11.6 9.8 77 2.0 ENE 11 15 6 8 1026.2 1026.2 0.0
22/12:00am 14.3 10.9 9.2 71 2.6 E 17 22 9 12 1026.0 1026.0 0.0
 
Date/Time
CST
Temp
°C
App
Temp
°C
Dew
Point
Rel
Hum
%
Delta-T
°C
Wind Press
QNH
hPa
Press
MSL
hPa
Rain
since 9 am
mm
Dir
 
Spd
km/h
Gust
km/h
Spd
kts
Gust
kts
21/11:30pm 14.5 10.6 8.7 68 2.9 E 19 26 10 14 1026.0 1026.0 0.0
21/11:00pm 14.2 10.6 8.4 68 2.9 E 17 22 9 12 1026.1 1026.1 0.0
21/10:30pm 14.3 10.5 7.6 64 3.3 E 17 20 9 11 1026.2 1026.2 0.0
21/10:00pm 13.9 11.0 8.0 67 2.9 E 13 17 7 9 1026.4 1026.4 0.0
21/09:30pm 14.4 11.6 8.6 68 2.9 E 13 17 7 9 1026.6 1026.6 0.0
21/09:00pm 15.0 11.4 8.2 64 3.4 ESE 17 20 9 11 1026.7 1026.7 0.0
21/08:30pm 14.4 11.3 10.4 77 2.1 ESE 17 20 9 11 1026.7 1026.7 0.0
21/08:00pm 13.0 11.1 9.2 78 1.9 SE 9 13 5 7 1027.1 1027.1 0.0
21/07:30pm 13.4 11.0 8.8 74 2.3 SE 11 13 6 7 1027.0 1027.0 0.0
21/07:00pm 13.0 10.9 9.9 81 1.6 SE 11 13 6 7 1026.8 1026.8 0.0
21/06:30pm 13.9 12.8 10.8 81 1.6 SSE 7 11 4 6 1026.8 1026.8 0.0
21/06:00pm 15.0 13.0 10.2 73 2.5 SSE 11 13 6 7 1026.5 1026.5 0.0
21/05:30pm 17.8 15.9 4.7 42 6.2 SSE 4 6 2 3 1026.5 1026.5 0.0
21/05:00pm 19.1 16.3 2.2 32 7.7 ESE 6 7 3 4 1026.7 1026.7 0.0
21/04:30pm 19.8 16.8 2.1 31 8.1 E 7 9 4 5 1026.7 1026.7 0.0
21/04:00pm 20.0 16.9 1.4 29 8.4 ENE 7 9 4 5 1026.8 1026.8 0.0
21/03:30pm 19.6 16.3 2.7 32 7.8 ENE 9 11 5 6 1026.9 1026.9 0.0
21/03:00pm 19.2 16.1 3.6 35 7.3 NE 9 11 5 6 1027.0 1027.0 0.0
21/02:30pm 18.8 15.6 5.1 40 6.6 NE 11 15 6 8 1027.2 1027.2 0.0
21/02:00pm 18.7 15.3 6.1 43 6.2 NE 13 15 7 8 1027.4 1027.4 0.0
21/01:30pm 17.6 14.3 6.6 48 5.4 NE 13 17 7 9 1027.8 1027.8 0.0
21/01:00pm 17.0 13.3 6.1 48 5.3 ENE 15 19 8 10 1028.1 1028.1 0.0
21/12:30pm 17.6 13.6 6.6 48 5.4 ENE 17 20 9 11 1028.7 1028.7 0.0
21/12:00pm 17.2 13.2 6.6 49 5.2 ENE 17 20 9 11 1029.3 1029.3 0.0
21/11:30am 17.3 13.2 6.2 48 5.4 ENE 17 20 9 11 1029.8 1029.8 0.0
21/11:00am 17.2 13.9 6.3 48 5.3 NE 13 19 7 10 1030.2 1030.2 0.0
21/10:30am 16.9 13.2 6.2 49 5.2 NE 15 20 8 11 1030.3 1030.3 0.0
21/10:00am 16.7 13.2 7.2 53 4.7 NE 15 19 8 10 1030.4 1030.4 0.0
21/09:30am 17.1 13.5 6.7 50 5.1 NE 15 19 8 10 1030.4 1030.4 0.0
21/09:00am 17.0 13.9 7.1 52 4.9 NE 13 17 7 9 1030.4 1030.4 0.0
21/08:30am 15.9 16.2 15.9 100 0.0 NE 9 15 5 8 1030.3 1030.3 0.0
21/08:00am 15.4 15.1 15.4 100 0.0 ENE 11 13 6 7 1030.0 1030.0 0.0
21/07:30am 12.0 11.9 12.0 100 0.0 NNE 4 7 2 4 1029.6 1029.6 0.0
21/07:00am 9.8 8.4 9.6 99 0.1 ENE 7 7 4 4 1029.3 1029.3 0.0
21/06:30am 7.0 6.3 6.8 99 0.1 CALM 0 0 0 0 1029.1 1029.1 0.0
21/06:00am 8.8 8.5 8.8 100 0.0 CALM 0 0 0 0 1028.9 1028.9 0.0
21/05:30am 8.6 7.1 8.6 100 0.0 N 6 9 3 5 1028.5 1028.5 0.0
21/05:00am 12.3 11.1 11.7 96 0.3 NE 9 11 5 6 1028.0 1028.0 0.0
21/04:30am 11.4 9.8 11.4 100 0.0 ENE 11 15 6 8 1027.8 1027.8 0.0
21/04:00am 11.5 10.3 11.5 100 0.0 E 9 9 5 5 1027.7 1027.7 0.0
21/03:30am 11.4 10.1 11.4 100 0.0 E 9 11 5 6 1027.4 1027.4 0.0
21/03:00am 11.7 10.1 11.7 100 0.0 E 11 13 6 7 1027.5 1027.5 0.0
21/02:30am 11.9 10.0 11.9 100 0.0 E 13 15 7 8 1027.5 1027.5 0.0
21/02:00am 12.3 10.6 12.3 100 0.0 E 13 15 7 8 1027.6 1027.6 0.0
21/01:30am 12.1 10.7 12.1 100 0.0 E 11 15 6 8 1027.8 1027.8 0.0
21/01:00am 13.0 12.8 13.0 100 0.0 E 6 11 3 6 1028.1 1028.1 0.0
21/12:30am 13.4 12.0 13.4 100 0.0 E 13 17 7 9 1028.0 1028.0 0.0
21/12:00am 13.5 11.8 13.5 100 0.0 E 15 20 8 11 1027.8 1027.8 0.0
 
Date/Time
CST
Temp
°C
App
Temp
°C
Dew
Point
Rel
Hum
%
Delta-T
°C
Wind Press
QNH
hPa
Press
MSL
hPa
Rain
since 9 am
mm
Dir
 
Spd
km/h
Gust
km/h
Spd
kts
Gust
kts
20/11:30pm 13.7 11.3 13.7 100 0.0 E 19 24 10 13 1027.7 1027.7 0.0
20/11:00pm 13.9 11.0 13.9 100 0.0 E 22 28 12 15 1027.7 1027.7 0.0
20/10:30pm 14.0 11.1 14.0 100 0.0 E 22 30 12 16 1027.8 1027.8 0.0
20/10:00pm 14.0 11.5 14.0 100 0.0 E 20 30 11 16 1027.8 1027.8 0.0

Other Formats:

Comma delimited format used in spreadsheet applications
http://www.bom.gov.au/fwo/IDS60801/IDS60801.94809.axf

JavaScript Object Notation format (JSON) in row-major order
http://www.bom.gov.au/fwo/IDS60801/IDS60801.94809.json